メインページ
METAR-TAF:

METAR-TAF

空港 :

宮崎空港

宮崎, 日本

緯度: 31-52N, 経度: 131-27E, 海抜: 6m

現時点の気象観測

当レポートは17分前の22:00(UTC)に作成
西の風 5kt
気温 14°C
湿度 100%
気圧 1017 hPa
視程10km以上
高度1000ftの雲はほとんどない
高度7000ftの千切れ雲あり
高度9000ftの千切れ雲あり

METAR: RJFM 162200Z 26005KT 9999 FEW010 BKN070 BKN090 14/14 Q1017

時間: 07:17 (22:17 UTC)

予報

当レポートは5時間11分前の17:06(UTC)に作成
予報は16日の 18時(UTC)から 18日の 00時(UTC)まで有効
北/北西の風 7kt
視程: 8000m
高度1000ftの雲はほとんどない
高度2000ftの雲は散在している
高度3000ftの千切れ雲あり
弱いにわか雨
16日の 18時(UTC)から 16日の 21時(UTC)まで一時的に
視程: 4000m
高度500ftの雲はほとんどない
高度800ftの千切れ雲あり
高度1500ftの千切れ雲あり
弱いにわか雨, 靄
16日の 23時(UTC)から 17日の 01時(UTC)まで徐々に
北/北東の風 10kt
17日の 09時(UTC)から 17日の 12時(UTC)まで徐々に
西/北西の風 6kt

TAF: RJFM 161706Z 1618/1800 33007KT 8000 -SHRA FEW010 SCT020 BKN030 TEMPO 1618/1621 4000 -SHRA BR FEW005 BKN008 BKN015 BECMG 1623/1701 03010KT BECMG 1709/1712 29006KT

4,000以上の空港の気象観測と天気予報(METAR報とTAF報)

利用可能な観測所は地図上に黄色い丸と赤い丸で示す。

丸の上にカーソルを重ねると観測所名を参照できる。

次にクリックすると気象観測と天気予報を参照できる。

マップの切り替え:黒色「×」印の緑ボタンをクリックして拡大、「-」印の緑ボタンをクリックして縮小、緑色の三角印をクリックして隣りの地図に切り替え


METAR-TAF: